sensor_id;sensor_type;location;lat;lon;timestamp;P1;durP1;ratioP1;P2;durP2;ratioP2
83814;SDS011;73829;53.826;-3.034;2024-01-15T00:01:16;2.70;;;0.70;;
83814;SDS011;73829;53.826;-3.034;2024-01-15T00:03:47;2.90;;;0.70;;
83814;SDS011;73829;53.826;-3.034;2024-01-15T00:06:18;2.90;;;0.70;;
83814;SDS011;73829;53.826;-3.034;2024-01-15T00:08:50;3.20;;;0.70;;
83814;SDS011;73829;53.826;-3.034;2024-01-15T00:11:21;2.40;;;0.70;;
83814;SDS011;73829;53.826;-3.034;2024-01-15T00:13:52;2.00;;;0.50;;
83814;SDS011;73829;53.826;-3.034;2024-01-15T00:16:23;2.80;;;0.70;;
83814;SDS011;73829;53.826;-3.034;2024-01-15T00:18:54;2.90;;;0.80;;
83814;SDS011;73829;53.826;-3.034;2024-01-15T00:21:25;2.10;;;0.60;;
83814;SDS011;73829;53.826;-3.034;2024-01-15T00:23:57;2.40;;;0.80;;
83814;SDS011;73829;53.826;-3.034;2024-01-15T00:26:28;2.50;;;0.60;;
83814;SDS011;73829;53.826;-3.034;2024-01-15T00:28:59;2.30;;;0.60;;
83814;SDS011;73829;53.826;-3.034;2024-01-15T00:31:31;1.90;;;0.50;;
83814;SDS011;73829;53.826;-3.034;2024-01-15T00:34:02;3.80;;;0.80;;
83814;SDS011;73829;53.826;-3.034;2024-01-15T00:36:33;3.70;;;0.70;;
83814;SDS011;73829;53.826;-3.034;2024-01-15T00:39:04;2.50;;;0.60;;
83814;SDS011;73829;53.826;-3.034;2024-01-15T00:41:35;2.60;;;0.60;;
83814;SDS011;73829;53.826;-3.034;2024-01-15T00:44:07;2.80;;;0.70;;
83814;SDS011;73829;53.826;-3.034;2024-01-15T00:46:43;2.90;;;0.70;;
83814;SDS011;73829;53.826;-3.034;2024-01-15T00:49:14;1.90;;;0.70;;
83814;SDS011;73829;53.826;-3.034;2024-01-15T00:51:47;2.10;;;0.50;;
83814;SDS011;73829;53.826;-3.034;2024-01-15T00:54:18;2.50;;;0.50;;
83814;SDS011;73829;53.826;-3.034;2024-01-15T00:59:19;2.30;;;0.50;;
83814;SDS011;73829;53.826;-3.034;2024-01-15T01:01:50;2.90;;;0.60;;
83814;SDS011;73829;53.826;-3.034;2024-01-15T01:04:21;3.00;;;0.50;;
83814;SDS011;73829;53.826;-3.034;2024-01-15T01:06:52;2.50;;;0.40;;
83814;SDS011;73829;53.826;-3.034;2024-01-15T01:09:23;2.10;;;0.50;;
83814;SDS011;73829;53.826;-3.034;2024-01-15T01:11:57;2.90;;;0.60;;
83814;SDS011;73829;53.826;-3.034;2024-01-15T01:14:28;2.00;;;0.50;;
83814;SDS011;73829;53.826;-3.034;2024-01-15T01:16:59;1.50;;;0.50;;
83814;SDS011;73829;53.826;-3.034;2024-01-15T01:19:30;1.40;;;0.30;;
83814;SDS011;73829;53.826;-3.034;2024-01-15T01:22:01;2.70;;;0.50;;
83814;SDS011;73829;53.826;-3.034;2024-01-15T01:24:33;2.20;;;0.50;;
83814;SDS011;73829;53.826;-3.034;2024-01-15T01:27:04;2.10;;;0.40;;
83814;SDS011;73829;53.826;-3.034;2024-01-15T01:29:35;0.90;;;0.30;;
83814;SDS011;73829;53.826;-3.034;2024-01-15T01:32:06;1.90;;;0.40;;
83814;SDS011;73829;53.826;-3.034;2024-01-15T01:34:40;2.00;;;0.50;;
83814;SDS011;73829;53.826;-3.034;2024-01-15T01:37:12;1.40;;;0.30;;
83814;SDS011;73829;53.826;-3.034;2024-01-15T01:39:43;2.40;;;0.40;;
83814;SDS011;73829;53.826;-3.034;2024-01-15T01:42:14;1.10;;;0.40;;
83814;SDS011;73829;53.826;-3.034;2024-01-15T01:44:46;1.70;;;0.30;;
83814;SDS011;73829;53.826;-3.034;2024-01-15T01:47:17;2.00;;;0.50;;
83814;SDS011;73829;53.826;-3.034;2024-01-15T01:49:48;1.70;;;0.50;;
83814;SDS011;73829;53.826;-3.034;2024-01-15T01:52:19;3.00;;;0.60;;
83814;SDS011;73829;53.826;-3.034;2024-01-15T01:54:51;1.80;;;0.40;;
83814;SDS011;73829;53.826;-3.034;2024-01-15T01:57:23;2.20;;;0.50;;
83814;SDS011;73829;53.826;-3.034;2024-01-15T01:59:54;1.40;;;0.40;;
83814;SDS011;73829;53.826;-3.034;2024-01-15T02:02:28;2.00;;;0.40;;
83814;SDS011;73829;53.826;-3.034;2024-01-15T02:04:59;1.40;;;0.40;;
83814;SDS011;73829;53.826;-3.034;2024-01-15T02:07:34;1.90;;;0.40;;
83814;SDS011;73829;53.826;-3.034;2024-01-15T02:10:06;2.10;;;0.50;;
83814;SDS011;73829;53.826;-3.034;2024-01-15T02:12:38;2.30;;;0.50;;
83814;SDS011;73829;53.826;-3.034;2024-01-15T02:15:09;2.20;;;0.50;;
83814;SDS011;73829;53.826;-3.034;2024-01-15T02:20:29;1.20;;;0.30;;
83814;SDS011;73829;53.826;-3.034;2024-01-15T02:23:07;2.00;;;0.30;;
83814;SDS011;73829;53.826;-3.034;2024-01-15T02:25:40;0.80;;;0.30;;
83814;SDS011;73829;53.826;-3.034;2024-01-15T02:28:12;1.10;;;0.30;;
83814;SDS011;73829;53.826;-3.034;2024-01-15T02:30:44;1.80;;;0.40;;
83814;SDS011;73829;53.826;-3.034;2024-01-15T02:33:15;1.50;;;0.30;;
83814;SDS011;73829;53.826;-3.034;2024-01-15T02:35:46;1.50;;;0.40;;
83814;SDS011;73829;53.826;-3.034;2024-01-15T02:38:18;2.10;;;0.40;;
83814;SDS011;73829;53.826;-3.034;2024-01-15T02:40:49;1.90;;;0.50;;
83814;SDS011;73829;53.826;-3.034;2024-01-15T02:43:20;2.40;;;0.40;;
83814;SDS011;73829;53.826;-3.034;2024-01-15T02:45:51;1.40;;;0.30;;
83814;SDS011;73829;53.826;-3.034;2024-01-15T02:48:22;1.70;;;0.40;;
83814;SDS011;73829;53.826;-3.034;2024-01-15T02:50:53;2.10;;;0.40;;
83814;SDS011;73829;53.826;-3.034;2024-01-15T02:53:26;1.30;;;0.40;;
83814;SDS011;73829;53.826;-3.034;2024-01-15T02:55:57;2.00;;;0.60;;
83814;SDS011;73829;53.826;-3.034;2024-01-15T02:58:28;1.40;;;0.30;;
83814;SDS011;73829;53.826;-3.034;2024-01-15T03:00:59;2.30;;;0.30;;
83814;SDS011;73829;53.826;-3.034;2024-01-15T03:03:32;1.70;;;0.30;;
83814;SDS011;73829;53.826;-3.034;2024-01-15T03:06:03;1.40;;;0.30;;
83814;SDS011;73829;53.826;-3.034;2024-01-15T03:08:35;1.10;;;0.40;;
83814;SDS011;73829;53.826;-3.034;2024-01-15T03:11:06;1.10;;;0.20;;
83814;SDS011;73829;53.826;-3.034;2024-01-15T03:13:37;1.40;;;0.40;;
83814;SDS011;73829;53.826;-3.034;2024-01-15T03:16:08;2.10;;;0.40;;
83814;SDS011;73829;53.826;-3.034;2024-01-15T03:18:39;1.20;;;0.30;;
83814;SDS011;73829;53.826;-3.034;2024-01-15T03:21:10;2.00;;;0.50;;
83814;SDS011;73829;53.826;-3.034;2024-01-15T03:23:41;0.90;;;0.20;;
83814;SDS011;73829;53.826;-3.034;2024-01-15T03:26:12;1.30;;;0.30;;
83814;SDS011;73829;53.826;-3.034;2024-01-15T03:28:43;1.40;;;0.40;;
83814;SDS011;73829;53.826;-3.034;2024-01-15T03:31:14;1.20;;;0.30;;
83814;SDS011;73829;53.826;-3.034;2024-01-15T03:33:46;2.60;;;0.50;;
83814;SDS011;73829;53.826;-3.034;2024-01-15T03:36:17;1.10;;;0.30;;
83814;SDS011;73829;53.826;-3.034;2024-01-15T03:38:48;0.80;;;0.20;;
83814;SDS011;73829;53.826;-3.034;2024-01-15T03:41:19;0.70;;;0.30;;
83814;SDS011;73829;53.826;-3.034;2024-01-15T03:43:50;1.40;;;0.30;;
83814;SDS011;73829;53.826;-3.034;2024-01-15T03:46:21;1.60;;;0.30;;
83814;SDS011;73829;53.826;-3.034;2024-01-15T03:48:52;1.90;;;0.40;;
83814;SDS011;73829;53.826;-3.034;2024-01-15T03:51:23;1.10;;;0.30;;
83814;SDS011;73829;53.826;-3.034;2024-01-15T03:53:54;2.70;;;0.40;;
83814;SDS011;73829;53.826;-3.034;2024-01-15T03:56:25;2.10;;;0.50;;
83814;SDS011;73829;53.826;-3.034;2024-01-15T03:58:56;3.10;;;0.40;;
83814;SDS011;73829;53.826;-3.034;2024-01-15T04:01:27;0.90;;;0.20;;
83814;SDS011;73829;53.826;-3.034;2024-01-15T04:03:58;1.10;;;0.40;;
83814;SDS011;73829;53.826;-3.034;2024-01-15T04:06:29;0.90;;;0.30;;
83814;SDS011;73829;53.826;-3.034;2024-01-15T04:09:01;1.30;;;0.20;;
83814;SDS011;73829;53.826;-3.034;2024-01-15T04:11:32;1.70;;;0.30;;
83814;SDS011;73829;53.826;-3.034;2024-01-15T04:14:03;1.30;;;0.30;;
83814;SDS011;73829;53.826;-3.034;2024-01-15T04:16:34;4.20;;;0.50;;
83814;SDS011;73829;53.826;-3.034;2024-01-15T04:19:06;0.50;;;0.10;;
83814;SDS011;73829;53.826;-3.034;2024-01-15T04:21:37;1.20;;;0.30;;
83814;SDS011;73829;53.826;-3.034;2024-01-15T04:24:08;2.30;;;0.40;;
83814;SDS011;73829;53.826;-3.034;2024-01-15T04:26:39;2.10;;;0.50;;
83814;SDS011;73829;53.826;-3.034;2024-01-15T04:29:12;1.00;;;0.10;;
83814;SDS011;73829;53.826;-3.034;2024-01-15T04:31:43;1.00;;;0.30;;
83814;SDS011;73829;53.826;-3.034;2024-01-15T04:34:14;1.60;;;0.30;;
83814;SDS011;73829;53.826;-3.034;2024-01-15T04:36:45;1.00;;;0.20;;
83814;SDS011;73829;53.826;-3.034;2024-01-15T04:39:16;0.60;;;0.20;;
83814;SDS011;73829;53.826;-3.034;2024-01-15T04:41:47;1.50;;;0.30;;
83814;SDS011;73829;53.826;-3.034;2024-01-15T04:44:18;1.60;;;0.20;;
83814;SDS011;73829;53.826;-3.034;2024-01-15T04:46:49;1.00;;;0.30;;
83814;SDS011;73829;53.826;-3.034;2024-01-15T04:49:20;0.80;;;0.30;;
83814;SDS011;73829;53.826;-3.034;2024-01-15T04:51:54;1.40;;;0.50;;
83814;SDS011;73829;53.826;-3.034;2024-01-15T04:54:25;1.80;;;0.20;;
83814;SDS011;73829;53.826;-3.034;2024-01-15T04:59:25;2.20;;;0.20;;
83814;SDS011;73829;53.826;-3.034;2024-01-15T05:01:56;0.90;;;0.20;;
83814;SDS011;73829;53.826;-3.034;2024-01-15T05:04:27;1.80;;;0.40;;
83814;SDS011;73829;53.826;-3.034;2024-01-15T05:06:58;1.50;;;0.20;;
83814;SDS011;73829;53.826;-3.034;2024-01-15T05:09:29;1.30;;;0.30;;
83814;SDS011;73829;53.826;-3.034;2024-01-15T05:12:00;0.90;;;0.20;;
83814;SDS011;73829;53.826;-3.034;2024-01-15T05:14:31;1.80;;;0.30;;
83814;SDS011;73829;53.826;-3.034;2024-01-15T05:17:02;1.40;;;0.40;;
83814;SDS011;73829;53.826;-3.034;2024-01-15T05:19:33;0.60;;;0.20;;
83814;SDS011;73829;53.826;-3.034;2024-01-15T05:22:05;2.30;;;0.40;;
83814;SDS011;73829;53.826;-3.034;2024-01-15T05:24:36;2.00;;;0.30;;
83814;SDS011;73829;53.826;-3.034;2024-01-15T05:27:07;1.40;;;0.20;;
83814;SDS011;73829;53.826;-3.034;2024-01-15T05:29:38;1.40;;;0.20;;
83814;SDS011;73829;53.826;-3.034;2024-01-15T05:32:09;1.10;;;0.20;;
83814;SDS011;73829;53.826;-3.034;2024-01-15T05:34:40;1.30;;;0.40;;
83814;SDS011;73829;53.826;-3.034;2024-01-15T05:37:11;1.70;;;0.30;;
83814;SDS011;73829;53.826;-3.034;2024-01-15T05:39:42;1.00;;;0.20;;
83814;SDS011;73829;53.826;-3.034;2024-01-15T05:42:13;1.00;;;0.20;;
83814;SDS011;73829;53.826;-3.034;2024-01-15T05:44:44;1.50;;;0.30;;
83814;SDS011;73829;53.826;-3.034;2024-01-15T05:47:15;1.20;;;0.20;;
83814;SDS011;73829;53.826;-3.034;2024-01-15T05:49:46;1.50;;;0.30;;
83814;SDS011;73829;53.826;-3.034;2024-01-15T05:52:17;1.20;;;0.20;;
83814;SDS011;73829;53.826;-3.034;2024-01-15T05:54:49;2.50;;;0.30;;
83814;SDS011;73829;53.826;-3.034;2024-01-15T05:57:20;0.90;;;0.20;;
83814;SDS011;73829;53.826;-3.034;2024-01-15T05:59:51;1.60;;;0.30;;
83814;SDS011;73829;53.826;-3.034;2024-01-15T06:02:22;1.10;;;0.10;;
83814;SDS011;73829;53.826;-3.034;2024-01-15T06:04:53;1.70;;;0.20;;
83814;SDS011;73829;53.826;-3.034;2024-01-15T06:07:25;1.20;;;0.20;;
83814;SDS011;73829;53.826;-3.034;2024-01-15T06:09:56;1.20;;;0.40;;
83814;SDS011;73829;53.826;-3.034;2024-01-15T06:12:27;1.30;;;0.20;;
83814;SDS011;73829;53.826;-3.034;2024-01-15T06:14:58;1.20;;;0.20;;
83814;SDS011;73829;53.826;-3.034;2024-01-15T06:17:30;1.00;;;0.20;;
83814;SDS011;73829;53.826;-3.034;2024-01-15T06:20:01;1.20;;;0.20;;
83814;SDS011;73829;53.826;-3.034;2024-01-15T06:22:32;0.50;;;0.10;;
83814;SDS011;73829;53.826;-3.034;2024-01-15T06:25:04;1.30;;;0.30;;
83814;SDS011;73829;53.826;-3.034;2024-01-15T06:27:36;0.90;;;0.20;;
83814;SDS011;73829;53.826;-3.034;2024-01-15T06:30:08;2.00;;;0.30;;
83814;SDS011;73829;53.826;-3.034;2024-01-15T06:32:40;1.70;;;0.50;;
83814;SDS011;73829;53.826;-3.034;2024-01-15T06:35:11;0.90;;;0.20;;
83814;SDS011;73829;53.826;-3.034;2024-01-15T06:37:42;1.40;;;0.20;;
83814;SDS011;73829;53.826;-3.034;2024-01-15T06:40:13;0.50;;;0.10;;
83814;SDS011;73829;53.826;-3.034;2024-01-15T06:42:44;0.70;;;0.20;;
83814;SDS011;73829;53.826;-3.034;2024-01-15T06:45:15;1.60;;;0.30;;
83814;SDS011;73829;53.826;-3.034;2024-01-15T06:47:46;2.40;;;0.30;;
83814;SDS011;73829;53.826;-3.034;2024-01-15T06:50:17;0.80;;;0.30;;
83814;SDS011;73829;53.826;-3.034;2024-01-15T06:52:48;1.40;;;0.30;;
83814;SDS011;73829;53.826;-3.034;2024-01-15T06:55:19;1.00;;;0.30;;
83814;SDS011;73829;53.826;-3.034;2024-01-15T06:57:50;1.20;;;0.20;;
83814;SDS011;73829;53.826;-3.034;2024-01-15T07:00:21;0.40;;;0.20;;
83814;SDS011;73829;53.826;-3.034;2024-01-15T07:02:53;1.30;;;0.20;;
83814;SDS011;73829;53.826;-3.034;2024-01-15T07:05:24;0.50;;;0.10;;
83814;SDS011;73829;53.826;-3.034;2024-01-15T07:07:57;0.90;;;0.20;;
83814;SDS011;73829;53.826;-3.034;2024-01-15T07:10:28;1.00;;;0.20;;
83814;SDS011;73829;53.826;-3.034;2024-01-15T07:12:59;2.20;;;0.30;;
83814;SDS011;73829;53.826;-3.034;2024-01-15T07:15:30;0.90;;;0.20;;
83814;SDS011;73829;53.826;-3.034;2024-01-15T07:18:01;1.00;;;0.20;;
83814;SDS011;73829;53.826;-3.034;2024-01-15T07:20:33;1.30;;;0.40;;
83814;SDS011;73829;53.826;-3.034;2024-01-15T07:23:04;1.30;;;0.20;;
83814;SDS011;73829;53.826;-3.034;2024-01-15T07:25:36;1.20;;;0.40;;
83814;SDS011;73829;53.826;-3.034;2024-01-15T07:28:07;1.50;;;0.20;;
83814;SDS011;73829;53.826;-3.034;2024-01-15T07:30:38;0.70;;;0.20;;
83814;SDS011;73829;53.826;-3.034;2024-01-15T07:33:09;0.40;;;0.20;;
83814;SDS011;73829;53.826;-3.034;2024-01-15T07:35:40;1.40;;;0.30;;
83814;SDS011;73829;53.826;-3.034;2024-01-15T07:38:12;1.10;;;0.20;;
83814;SDS011;73829;53.826;-3.034;2024-01-15T07:40:43;1.00;;;0.20;;
83814;SDS011;73829;53.826;-3.034;2024-01-15T07:43:17;1.40;;;0.40;;
83814;SDS011;73829;53.826;-3.034;2024-01-15T07:48:17;3.70;;;0.30;;
83814;SDS011;73829;53.826;-3.034;2024-01-15T07:50:49;2.50;;;0.20;;
83814;SDS011;73829;53.826;-3.034;2024-01-15T07:53:20;2.80;;;0.40;;
83814;SDS011;73829;53.826;-3.034;2024-01-15T07:55:52;1.50;;;0.20;;
83814;SDS011;73829;53.826;-3.034;2024-01-15T07:58:23;2.90;;;0.40;;
83814;SDS011;73829;53.826;-3.034;2024-01-15T08:00:54;4.10;;;0.40;;
83814;SDS011;73829;53.826;-3.034;2024-01-15T08:03:25;2.30;;;0.30;;
83814;SDS011;73829;53.826;-3.034;2024-01-15T08:05:56;2.20;;;0.30;;
83814;SDS011;73829;53.826;-3.034;2024-01-15T08:08:28;3.80;;;0.60;;
83814;SDS011;73829;53.826;-3.034;2024-01-15T08:10:59;1.80;;;0.30;;
83814;SDS011;73829;53.826;-3.034;2024-01-15T08:13:30;7.60;;;0.70;;
83814;SDS011;73829;53.826;-3.034;2024-01-15T08:16:01;5.50;;;0.50;;
83814;SDS011;73829;53.826;-3.034;2024-01-15T08:18:32;3.30;;;0.40;;
83814;SDS011;73829;53.826;-3.034;2024-01-15T08:21:04;3.40;;;0.50;;
83814;SDS011;73829;53.826;-3.034;2024-01-15T08:23:35;2.20;;;0.30;;
83814;SDS011;73829;53.826;-3.034;2024-01-15T08:26:06;2.30;;;0.40;;
83814;SDS011;73829;53.826;-3.034;2024-01-15T08:28:37;2.20;;;0.50;;
83814;SDS011;73829;53.826;-3.034;2024-01-15T08:31:08;3.20;;;0.50;;
83814;SDS011;73829;53.826;-3.034;2024-01-15T08:33:39;2.50;;;0.40;;
83814;SDS011;73829;53.826;-3.034;2024-01-15T08:36:11;2.20;;;0.40;;
83814;SDS011;73829;53.826;-3.034;2024-01-15T08:38:42;2.30;;;0.40;;
83814;SDS011;73829;53.826;-3.034;2024-01-15T08:41:13;1.70;;;0.40;;
83814;SDS011;73829;53.826;-3.034;2024-01-15T08:43:44;1.40;;;0.40;;
83814;SDS011;73829;53.826;-3.034;2024-01-15T08:46:15;1.80;;;0.40;;
83814;SDS011;73829;53.826;-3.034;2024-01-15T08:48:46;1.50;;;0.80;;
83814;SDS011;73829;53.826;-3.034;2024-01-15T08:51:17;3.20;;;0.30;;
83814;SDS011;73829;53.826;-3.034;2024-01-15T08:53:48;2.30;;;0.30;;
83814;SDS011;73829;53.826;-3.034;2024-01-15T08:58:48;3.00;;;0.40;;
83814;SDS011;73829;53.826;-3.034;2024-01-15T09:01:19;2.60;;;0.40;;
83814;SDS011;73829;53.826;-3.034;2024-01-15T09:03:51;1.80;;;0.10;;
83814;SDS011;73829;53.826;-3.034;2024-01-15T09:06:22;1.30;;;0.20;;
83814;SDS011;73829;53.826;-3.034;2024-01-15T09:08:53;3.20;;;0.20;;
83814;SDS011;73829;53.826;-3.034;2024-01-15T09:11:24;2.10;;;0.40;;
83814;SDS011;73829;53.826;-3.034;2024-01-15T09:13:55;2.50;;;0.20;;
83814;SDS011;73829;53.826;-3.034;2024-01-15T09:16:26;1.80;;;0.30;;
83814;SDS011;73829;53.826;-3.034;2024-01-15T09:18:57;1.40;;;0.20;;
83814;SDS011;73829;53.826;-3.034;2024-01-15T09:21:28;1.80;;;0.50;;
83814;SDS011;73829;53.826;-3.034;2024-01-15T09:23:59;1.40;;;0.20;;
83814;SDS011;73829;53.826;-3.034;2024-01-15T09:26:30;2.20;;;0.40;;
83814;SDS011;73829;53.826;-3.034;2024-01-15T09:29:02;3.10;;;0.40;;
83814;SDS011;73829;53.826;-3.034;2024-01-15T09:31:33;2.00;;;0.40;;
83814;SDS011;73829;53.826;-3.034;2024-01-15T09:34:04;3.00;;;0.40;;
83814;SDS011;73829;53.826;-3.034;2024-01-15T09:36:40;1.30;;;0.40;;
83814;SDS011;73829;53.826;-3.034;2024-01-15T09:39:11;2.80;;;0.50;;
83814;SDS011;73829;53.826;-3.034;2024-01-15T09:41:43;1.40;;;0.30;;
83814;SDS011;73829;53.826;-3.034;2024-01-15T09:44:15;1.50;;;0.30;;
83814;SDS011;73829;53.826;-3.034;2024-01-15T09:46:47;2.90;;;0.40;;
83814;SDS011;73829;53.826;-3.034;2024-01-15T09:49:18;3.20;;;0.70;;
83814;SDS011;73829;53.826;-3.034;2024-01-15T09:51:49;3.60;;;0.70;;
83814;SDS011;73829;53.826;-3.034;2024-01-15T09:54:20;3.10;;;0.70;;
83814;SDS011;73829;53.826;-3.034;2024-01-15T09:56:52;3.00;;;0.60;;
83814;SDS011;73829;53.826;-3.034;2024-01-15T09:59:23;2.50;;;0.40;;
83814;SDS011;73829;53.826;-3.034;2024-01-15T10:01:55;2.60;;;0.50;;
83814;SDS011;73829;53.826;-3.034;2024-01-15T10:04:27;2.60;;;0.60;;
83814;SDS011;73829;53.826;-3.034;2024-01-15T10:06:58;2.70;;;0.70;;
83814;SDS011;73829;53.826;-3.034;2024-01-15T10:09:32;1.50;;;0.30;;
83814;SDS011;73829;53.826;-3.034;2024-01-15T10:12:03;1.50;;;0.30;;
83814;SDS011;73829;53.826;-3.034;2024-01-15T10:14:35;1.80;;;0.40;;
83814;SDS011;73829;53.826;-3.034;2024-01-15T10:17:17;1.90;;;0.40;;
83814;SDS011;73829;53.826;-3.034;2024-01-15T10:19:48;2.30;;;0.40;;
83814;SDS011;73829;53.826;-3.034;2024-01-15T10:22:19;1.40;;;0.30;;
83814;SDS011;73829;53.826;-3.034;2024-01-15T10:24:51;2.60;;;0.40;;
83814;SDS011;73829;53.826;-3.034;2024-01-15T10:27:22;3.20;;;0.40;;
83814;SDS011;73829;53.826;-3.034;2024-01-15T10:29:55;2.00;;;0.40;;
83814;SDS011;73829;53.826;-3.034;2024-01-15T10:32:32;2.00;;;0.40;;
83814;SDS011;73829;53.826;-3.034;2024-01-15T10:35:03;2.60;;;0.60;;
83814;SDS011;73829;53.826;-3.034;2024-01-15T10:37:36;2.00;;;0.40;;
83814;SDS011;73829;53.826;-3.034;2024-01-15T10:40:10;1.90;;;0.40;;
83814;SDS011;73829;53.826;-3.034;2024-01-15T10:42:42;2.40;;;0.50;;
83814;SDS011;73829;53.826;-3.034;2024-01-15T10:45:15;3.30;;;0.60;;
83814;SDS011;73829;53.826;-3.034;2024-01-15T10:47:46;2.60;;;0.50;;
83814;SDS011;73829;53.826;-3.034;2024-01-15T10:50:17;1.80;;;0.40;;
83814;SDS011;73829;53.826;-3.034;2024-01-15T10:52:49;1.30;;;0.30;;
83814;SDS011;73829;53.826;-3.034;2024-01-15T10:55:21;1.30;;;0.40;;
83814;SDS011;73829;53.826;-3.034;2024-01-15T10:57:54;3.40;;;0.60;;
83814;SDS011;73829;53.826;-3.034;2024-01-15T11:00:26;2.20;;;0.50;;
83814;SDS011;73829;53.826;-3.034;2024-01-15T11:02:59;2.90;;;0.50;;
83814;SDS011;73829;53.826;-3.034;2024-01-15T11:05:34;2.30;;;0.50;;
83814;SDS011;73829;53.826;-3.034;2024-01-15T11:08:08;3.00;;;0.50;;
83814;SDS011;73829;53.826;-3.034;2024-01-15T11:10:41;3.10;;;0.60;;
83814;SDS011;73829;53.826;-3.034;2024-01-15T11:13:19;2.70;;;0.60;;
83814;SDS011;73829;53.826;-3.034;2024-01-15T11:15:56;2.80;;;0.60;;
83814;SDS011;73829;53.826;-3.034;2024-01-15T11:18:30;3.60;;;0.70;;
83814;SDS011;73829;53.826;-3.034;2024-01-15T11:21:23;2.30;;;0.60;;
83814;SDS011;73829;53.826;-3.034;2024-01-15T11:23:55;5.50;;;0.80;;
83814;SDS011;73829;53.826;-3.034;2024-01-15T11:26:30;2.30;;;0.40;;
83814;SDS011;73829;53.826;-3.034;2024-01-15T11:29:06;5.20;;;0.90;;
83814;SDS011;73829;53.826;-3.034;2024-01-15T11:31:57;3.60;;;0.60;;
83814;SDS011;73829;53.826;-3.034;2024-01-15T11:34:57;5.00;;;0.90;;
83814;SDS011;73829;53.826;-3.034;2024-01-15T11:40:38;2.10;;;0.50;;
83814;SDS011;73829;53.826;-3.034;2024-01-15T11:43:12;3.90;;;1.00;;
83814;SDS011;73829;53.826;-3.034;2024-01-15T11:45:48;3.80;;;1.10;;
83814;SDS011;73829;53.826;-3.034;2024-01-15T11:48:23;5.70;;;1.40;;
83814;SDS011;73829;53.826;-3.034;2024-01-15T11:51:10;3.50;;;1.00;;
83814;SDS011;73829;53.826;-3.034;2024-01-15T11:53:43;6.20;;;1.40;;
83814;SDS011;73829;53.826;-3.034;2024-01-15T11:56:17;4.40;;;1.50;;
83814;SDS011;73829;53.826;-3.034;2024-01-15T11:58:51;5.30;;;1.60;;
83814;SDS011;73829;53.826;-3.034;2024-01-15T12:01:22;5.40;;;1.30;;
83814;SDS011;73829;53.826;-3.034;2024-01-15T12:03:54;4.30;;;1.20;;
83814;SDS011;73829;53.826;-3.034;2024-01-15T12:06:26;5.20;;;1.30;;
83814;SDS011;73829;53.826;-3.034;2024-01-15T12:09:06;5.10;;;1.50;;
83814;SDS011;73829;53.826;-3.034;2024-01-15T12:11:39;4.60;;;1.10;;
83814;SDS011;73829;53.826;-3.034;2024-01-15T12:14:20;5.20;;;1.50;;
83814;SDS011;73829;53.826;-3.034;2024-01-15T12:16:51;4.90;;;1.60;;
83814;SDS011;73829;53.826;-3.034;2024-01-15T12:19:22;7.30;;;1.80;;
83814;SDS011;73829;53.826;-3.034;2024-01-15T12:21:54;6.20;;;2.20;;
83814;SDS011;73829;53.826;-3.034;2024-01-15T12:24:25;8.80;;;3.30;;
83814;SDS011;73829;53.826;-3.034;2024-01-15T12:26:56;8.30;;;3.80;;
83814;SDS011;73829;53.826;-3.034;2024-01-15T12:29:27;9.00;;;4.10;;
83814;SDS011;73829;53.826;-3.034;2024-01-15T12:31:59;7.60;;;3.70;;
83814;SDS011;73829;53.826;-3.034;2024-01-15T12:34:31;11.70;;;5.10;;
83814;SDS011;73829;53.826;-3.034;2024-01-15T12:37:02;11.70;;;5.90;;
83814;SDS011;73829;53.826;-3.034;2024-01-15T12:39:35;10.90;;;5.60;;
83814;SDS011;73829;53.826;-3.034;2024-01-15T12:42:06;11.30;;;5.90;;
83814;SDS011;73829;53.826;-3.034;2024-01-15T12:44:37;14.40;;;5.70;;
83814;SDS011;73829;53.826;-3.034;2024-01-15T12:47:09;10.80;;;5.60;;
83814;SDS011;73829;53.826;-3.034;2024-01-15T12:49:42;10.80;;;6.00;;
83814;SDS011;73829;53.826;-3.034;2024-01-15T12:52:18;10.70;;;5.60;;
83814;SDS011;73829;53.826;-3.034;2024-01-15T12:54:50;13.30;;;6.30;;
83814;SDS011;73829;53.826;-3.034;2024-01-15T12:57:21;12.40;;;5.80;;
83814;SDS011;73829;53.826;-3.034;2024-01-15T12:59:53;14.30;;;6.50;;
83814;SDS011;73829;53.826;-3.034;2024-01-15T13:02:25;11.50;;;5.40;;
83814;SDS011;73829;53.826;-3.034;2024-01-15T13:04:56;14.30;;;6.10;;
83814;SDS011;73829;53.826;-3.034;2024-01-15T13:07:29;9.40;;;5.50;;
83814;SDS011;73829;53.826;-3.034;2024-01-15T13:10:00;12.10;;;5.70;;
83814;SDS011;73829;53.826;-3.034;2024-01-15T13:12:31;12.60;;;5.80;;
83814;SDS011;73829;53.826;-3.034;2024-01-15T13:15:02;12.10;;;5.30;;
83814;SDS011;73829;53.826;-3.034;2024-01-15T13:17:34;11.30;;;5.40;;
83814;SDS011;73829;53.826;-3.034;2024-01-15T13:20:06;13.10;;;5.20;;
83814;SDS011;73829;53.826;-3.034;2024-01-15T13:22:44;11.00;;;5.40;;
83814;SDS011;73829;53.826;-3.034;2024-01-15T13:25:15;10.10;;;5.10;;
83814;SDS011;73829;53.826;-3.034;2024-01-15T13:27:46;12.10;;;5.30;;
83814;SDS011;73829;53.826;-3.034;2024-01-15T13:30:18;11.70;;;5.50;;
83814;SDS011;73829;53.826;-3.034;2024-01-15T13:32:49;10.50;;;5.40;;
83814;SDS011;73829;53.826;-3.034;2024-01-15T13:35:21;9.40;;;5.10;;
83814;SDS011;73829;53.826;-3.034;2024-01-15T13:37:52;10.40;;;5.00;;
83814;SDS011;73829;53.826;-3.034;2024-01-15T13:40:23;10.00;;;5.10;;
83814;SDS011;73829;53.826;-3.034;2024-01-15T13:42:55;12.90;;;5.40;;
83814;SDS011;73829;53.826;-3.034;2024-01-15T13:45:26;10.40;;;4.40;;
83814;SDS011;73829;53.826;-3.034;2024-01-15T13:47:57;10.00;;;4.90;;
83814;SDS011;73829;53.826;-3.034;2024-01-15T13:50:29;11.10;;;5.00;;
83814;SDS011;73829;53.826;-3.034;2024-01-15T13:53:00;11.50;;;4.60;;
83814;SDS011;73829;53.826;-3.034;2024-01-15T13:55:31;9.40;;;4.20;;
83814;SDS011;73829;53.826;-3.034;2024-01-15T13:58:02;9.70;;;3.90;;
83814;SDS011;73829;53.826;-3.034;2024-01-15T14:00:33;9.40;;;4.50;;
83814;SDS011;73829;53.826;-3.034;2024-01-15T14:03:05;7.60;;;4.00;;
83814;SDS011;73829;53.826;-3.034;2024-01-15T14:05:36;12.20;;;4.50;;
83814;SDS011;73829;53.826;-3.034;2024-01-15T14:08:07;10.70;;;4.30;;
83814;SDS011;73829;53.826;-3.034;2024-01-15T14:10:39;8.90;;;4.10;;
83814;SDS011;73829;53.826;-3.034;2024-01-15T14:13:10;9.80;;;4.20;;
83814;SDS011;73829;53.826;-3.034;2024-01-15T14:15:42;10.30;;;4.20;;
83814;SDS011;73829;53.826;-3.034;2024-01-15T14:18:13;8.70;;;4.00;;
83814;SDS011;73829;53.826;-3.034;2024-01-15T14:20:44;10.60;;;3.80;;
83814;SDS011;73829;53.826;-3.034;2024-01-15T14:23:15;12.10;;;4.30;;
83814;SDS011;73829;53.826;-3.034;2024-01-15T14:25:47;9.30;;;3.50;;
83814;SDS011;73829;53.826;-3.034;2024-01-15T14:28:18;10.70;;;4.00;;
83814;SDS011;73829;53.826;-3.034;2024-01-15T14:30:49;10.30;;;3.70;;
83814;SDS011;73829;53.826;-3.034;2024-01-15T14:33:20;9.20;;;3.60;;
83814;SDS011;73829;53.826;-3.034;2024-01-15T14:35:51;9.30;;;3.70;;
83814;SDS011;73829;53.826;-3.034;2024-01-15T14:38:22;7.90;;;4.50;;
83814;SDS011;73829;53.826;-3.034;2024-01-15T14:40:53;8.20;;;3.90;;
83814;SDS011;73829;53.826;-3.034;2024-01-15T14:43:25;9.00;;;3.40;;
83814;SDS011;73829;53.826;-3.034;2024-01-15T14:45:55;7.50;;;3.40;;
83814;SDS011;73829;53.826;-3.034;2024-01-15T14:48:27;9.10;;;3.30;;
83814;SDS011;73829;53.826;-3.034;2024-01-15T14:50:58;11.50;;;3.10;;
83814;SDS011;73829;53.826;-3.034;2024-01-15T14:53:31;7.80;;;3.20;;
83814;SDS011;73829;53.826;-3.034;2024-01-15T14:56:03;7.40;;;3.10;;
83814;SDS011;73829;53.826;-3.034;2024-01-15T14:58:35;10.20;;;3.40;;
83814;SDS011;73829;53.826;-3.034;2024-01-15T15:01:06;7.60;;;2.90;;
83814;SDS011;73829;53.826;-3.034;2024-01-15T15:03:38;6.00;;;2.60;;
83814;SDS011;73829;53.826;-3.034;2024-01-15T15:06:09;7.10;;;2.90;;
83814;SDS011;73829;53.826;-3.034;2024-01-15T15:08:40;6.00;;;2.40;;
83814;SDS011;73829;53.826;-3.034;2024-01-15T15:11:11;9.50;;;3.00;;
83814;SDS011;73829;53.826;-3.034;2024-01-15T15:13:42;8.40;;;2.90;;
83814;SDS011;73829;53.826;-3.034;2024-01-15T15:16:13;6.50;;;2.30;;